Aqua Ramon, Colorado
Current Conditions -  °F | °C
As of 8:30 PM on Monday 22 Dec 2014 (Local Time) from KRCV Reporting Station
Scattered Clouds Scattered Clouds  
Wind Chill: 14°   Ceiling: Unl
Heat Index: 22°   Visibility: 10mi
Dew Point: 10°   Wind: 7mph
Humidity: 60%   Direction: 330°NNW
Pressure: 29.81"   Gusts: NA
Location:  37.6359°N, 106.449°W
Report Text: KRCV 230330Z AUTO 33006KT 10SM SCT038 SCT090 SCT110 M05/M12 A2981 RMK AO2 T10531120
Loading
Personal Weather Stations






























Interactive Weather Map New forecast layout! Learn more

10-Day Weather Forecast

Advertisements
Track Severe Weather on mobile